Terminal Aerodrome Forecast
Issued by NWS Charleston, WV

Current Version | Previous Version | Text Only | Print | Product List | Glossary Off
Versions: 1 2 3 4 5 6 7 8 9 10 11 12 13 14 15 16 17 18 19 20 21 22 23 24

735
FTUS41 KRLX 290546
TAFHTS
TAF
KHTS 290546Z 2906/3006 23005KT P6SM VCTS BKN040CB
      TEMPO 2906/2910 -SHRA BKN025
     FM291000 25004KT P6SM BKN035
     FM291200 25004KT P6SM SCT035
     FM291600 25004KT P6SM SCT060
     FM300300 00000KT P6SM SCT060=

USA.gov is the U.S. government's official web portal to all federal, state and local government web resources and services.